Time;durP1;ratioP1;P1;durP2;ratioP2;P2;SDS_P1;SDS_P2;PMS_P1;PMS_P2;Temp;Humidity;BMP_temperature;BMP_pressure;BME280_temperature;BME280_humidity;BME280_pressure;Samples;Min_cycle;Max_cycle;Signal;HPM_P1;HPM_P2
2023/11/11 00:01:42;;;;;;;0.40;0.40;;;6.60;99.90;;;;;;5041528;28;20191;-65
2023/11/11 00:04:08;;;;;;;0.30;0.30;;;6.60;99.90;;;;;;5039467;28;20182;-65
2023/11/11 00:06:33;;;;;;;0.40;0.40;;;6.60;99.90;;;;;;5041474;28;20217;-65
2023/11/11 00:08:59;;;;;;;0.40;0.40;;;6.60;99.90;;;;;;5040917;28;20179;-65
2023/11/11 00:11:25;;;;;;;0.30;0.30;;;6.50;99.90;;;;;;5041292;28;20176;-65
2023/11/11 00:13:56;;;;;;;0.30;0.30;;;6.50;99.90;;;;;;5045690;28;20202;-65
2023/11/11 00:16:22;;;;;;;0.30;0.30;;;6.50;99.90;;;;;;5045320;28;20558;-65
2023/11/11 00:18:48;;;;;;;0.30;0.30;;;6.40;99.90;;;;;;5043462;28;20174;-65
2023/11/11 00:21:14;;;;;;;0.30;0.30;;;6.40;99.90;;;;;;5045280;28;20590;-65
2023/11/11 00:23:40;;;;;;;0.40;0.40;;;6.50;99.90;;;;;;5045176;28;20506;-65
2023/11/11 00:26:05;;;;;;;0.40;0.40;;;6.50;99.90;;;;;;5043513;28;20302;-65
2023/11/11 00:28:31;;;;;;;0.40;0.40;;;6.40;99.90;;;;;;5045230;28;20167;-65
2023/11/11 00:30:56;;;;;;;1.00;0.53;;;6.50;99.90;;;;;;5044357;28;20207;-65
2023/11/11 00:33:22;;;;;;;0.30;0.30;;;6.50;99.90;;;;;;5043911;28;20191;-65
2023/11/11 00:35:48;;;;;;;0.50;0.50;;;6.60;99.90;;;;;;5045581;28;20195;-65
2023/11/11 00:38:14;;;;;;;0.67;0.67;;;6.60;99.90;;;;;;5043552;28;20544;-66
2023/11/11 00:40:40;;;;;;;0.30;0.30;;;6.70;99.90;;;;;;5044064;28;20173;-65
2023/11/11 00:43:07;;;;;;;0.73;0.73;;;6.70;99.90;;;;;;5045315;28;20271;-65
2023/11/11 00:45:33;;;;;;;0.40;0.40;;;6.80;99.90;;;;;;5043491;28;20553;-65
2023/11/11 00:48:00;;;;;;;0.30;0.30;;;6.90;99.90;;;;;;5043943;28;20171;-65
2023/11/11 00:50:26;;;;;;;0.30;0.30;;;6.90;99.90;;;;;;5044825;28;20453;-65
2023/11/11 00:52:52;;;;;;;0.77;0.60;;;6.90;99.90;;;;;;5043482;28;20243;-65
2023/11/11 00:55:18;;;;;;;0.30;0.30;;;6.90;99.90;;;;;;5044105;28;20409;-65
2023/11/11 00:57:44;;;;;;;0.30;0.30;;;6.90;99.90;;;;;;5044673;28;20176;-65
2023/11/11 01:00:10;;;;;;;1.13;1.05;;;6.90;99.90;;;;;;5042985;28;20184;-65
2023/11/11 01:02:36;;;;;;;0.30;0.30;;;7.00;99.90;;;;;;5044532;28;20177;-65
2023/11/11 01:05:02;;;;;;;0.30;0.30;;;6.70;99.90;;;;;;5041958;28;20430;-65
2023/11/11 01:07:28;;;;;;;0.50;0.50;;;6.40;99.90;;;;;;5034251;28;20681;-65
2023/11/11 01:09:54;;;;;;;1.37;0.80;;;6.30;99.90;;;;;;5034311;28;20246;-65
2023/11/11 01:12:22;;;;;;;0.80;0.80;;;6.30;99.90;;;;;;5036483;28;20693;-65
2023/11/11 01:14:49;;;;;;;0.30;0.30;;;6.40;99.90;;;;;;5034457;28;20220;-65
2023/11/11 01:17:15;;;;;;;0.60;0.50;;;6.60;99.90;;;;;;5033947;28;20188;-65
2023/11/11 01:19:41;;;;;;;1.80;1.70;;;6.70;99.90;;;;;;5033877;28;20181;-65
2023/11/11 01:22:09;;;;;;;0.30;0.30;;;6.70;99.90;;;;;;5033928;28;20708;-65
2023/11/11 01:24:36;;;;;;;0.40;0.40;;;6.80;99.90;;;;;;5032830;28;20180;-65
2023/11/11 01:27:02;;;;;;;0.77;0.65;;;6.80;99.90;;;;;;5033734;28;20758;-65
2023/11/11 01:29:30;;;;;;;0.30;0.30;;;6.90;99.90;;;;;;5033649;28;20284;-65
2023/11/11 01:31:55;;;;;;;0.75;0.75;;;6.80;99.90;;;;;;5033855;28;20408;-65
2023/11/11 01:34:21;;;;;;;0.63;0.63;;;6.70;99.90;;;;;;5034064;28;20180;-65
2023/11/11 01:36:47;;;;;;;0.70;0.70;;;6.60;99.90;;;;;;5033614;28;20193;-65
2023/11/11 01:39:13;;;;;;;0.50;0.47;;;6.40;99.90;;;;;;5033642;28;20183;-65
2023/11/11 01:41:39;;;;;;;0.50;0.50;;;6.20;99.90;;;;;;5033608;28;20241;-65
2023/11/11 01:44:05;;;;;;;0.30;0.30;;;6.30;99.90;;;;;;5033893;28;20264;-65
2023/11/11 01:46:32;;;;;;;0.30;0.30;;;6.10;99.90;;;;;;5033418;28;20263;-65
2023/11/11 01:49:00;;;;;;;3.22;1.15;;;6.20;99.90;;;;;;5033241;28;20275;-65
2023/11/11 01:51:28;;;;;;;0.70;0.70;;;6.30;99.90;;;;;;5033438;28;20177;-65
2023/11/11 01:53:55;;;;;;;0.40;0.40;;;6.40;99.90;;;;;;5033470;28;20247;-65
2023/11/11 01:56:20;;;;;;;0.60;0.60;;;6.50;99.90;;;;;;5033233;28;20295;-65
2023/11/11 01:58:46;;;;;;;0.40;0.40;;;6.60;99.90;;;;;;5033121;28;20252;-65
2023/11/11 02:01:12;;;;;;;0.40;0.40;;;6.70;99.90;;;;;;5033359;28;20254;-65
2023/11/11 02:03:38;;;;;;;0.40;0.40;;;6.70;99.90;;;;;;5033277;28;20705;-65
2023/11/11 02:06:09;;;;;;;0.30;0.30;;;6.50;99.90;;;;;;5033187;28;20200;-65
2023/11/11 02:08:35;;;;;;;0.50;0.50;;;6.40;99.90;;;;;;5032989;28;20662;-65
2023/11/11 02:11:05;;;;;;;0.40;0.40;;;6.30;99.90;;;;;;5033136;28;20230;-65
2023/11/11 02:13:34;;;;;;;1.20;0.60;;;6.10;99.90;;;;;;5033142;28;20180;-65
2023/11/11 02:16:03;;;;;;;0.50;0.50;;;6.10;99.90;;;;;;5033022;28;20196;-65
2023/11/11 02:18:28;;;;;;;0.98;0.98;;;6.00;99.90;;;;;;5032491;28;20245;-65
2023/11/11 02:20:54;;;;;;;0.40;0.40;;;5.90;99.90;;;;;;5033001;28;20173;-65
2023/11/11 02:23:20;;;;;;;0.40;0.40;;;6.10;99.90;;;;;;5032839;28;20177;-65
2023/11/11 02:25:45;;;;;;;0.30;0.30;;;6.20;99.90;;;;;;5032532;28;20475;-65
2023/11/11 02:28:11;;;;;;;1.63;1.20;;;6.20;99.90;;;;;;5048328;28;20179;-65
2023/11/11 02:30:37;;;;;;;0.50;0.50;;;6.20;99.90;;;;;;5052411;28;20203;-65
2023/11/11 02:33:02;;;;;;;0.40;0.40;;;6.10;99.90;;;;;;5052241;28;20213;-65
2023/11/11 02:35:29;;;;;;;1.57;0.63;;;6.10;99.90;;;;;;5052094;28;20163;-65
2023/11/11 02:37:55;;;;;;;0.55;0.55;;;6.10;99.90;;;;;;5052307;28;20200;-65
2023/11/11 02:40:20;;;;;;;0.40;0.40;;;6.30;99.90;;;;;;5052511;28;20177;-65
2023/11/11 02:42:46;;;;;;;0.40;0.40;;;6.20;99.90;;;;;;5052467;28;20177;-65
2023/11/11 02:45:12;;;;;;;0.30;0.30;;;6.20;99.90;;;;;;5052425;28;20665;-65
2023/11/11 02:47:38;;;;;;;0.77;0.77;;;6.30;99.90;;;;;;5052301;28;20922;-65
2023/11/11 02:50:04;;;;;;;0.90;0.80;;;6.40;99.90;;;;;;5052030;28;20781;-66
2023/11/11 02:52:30;;;;;;;0.50;0.50;;;6.40;99.90;;;;;;5052167;28;20196;-65
2023/11/11 02:54:57;;;;;;;0.30;0.30;;;6.30;99.90;;;;;;5052498;28;20223;-65
2023/11/11 02:57:24;;;;;;;0.50;0.50;;;6.20;99.90;;;;;;5051690;28;20206;-65
2023/11/11 02:59:50;;;;;;;0.63;0.63;;;6.20;99.90;;;;;;5051989;28;20183;-65
2023/11/11 03:02:16;;;;;;;0.40;0.40;;;6.30;99.90;;;;;;5052158;28;20206;-65
2023/11/11 03:04:41;;;;;;;0.53;0.53;;;6.40;99.90;;;;;;5052123;28;20173;-65
2023/11/11 03:07:07;;;;;;;0.30;0.30;;;6.40;99.90;;;;;;5051783;28;20214;-65
2023/11/11 03:09:33;;;;;;;0.30;0.30;;;6.50;99.90;;;;;;5051766;28;20257;-65
2023/11/11 03:12:00;;;;;;;0.60;0.50;;;6.50;99.90;;;;;;5051988;28;20224;-65
2023/11/11 03:14:26;;;;;;;0.73;0.73;;;6.50;99.90;;;;;;5051896;28;20370;-65
2023/11/11 03:16:52;;;;;;;0.43;0.40;;;6.60;99.90;;;;;;5051705;28;20282;-65
2023/11/11 03:19:17;;;;;;;0.30;0.30;;;6.60;99.90;;;;;;5051659;28;20180;-65
2023/11/11 03:21:43;;;;;;;0.40;0.40;;;6.70;99.90;;;;;;5051676;28;20414;-65
2023/11/11 03:24:09;;;;;;;0.87;0.50;;;6.70;99.90;;;;;;5051713;28;20550;-65
2023/11/11 03:26:34;;;;;;;1.00;0.73;;;6.60;99.90;;;;;;5051529;28;20562;-65
2023/11/11 03:29:01;;;;;;;0.60;0.60;;;6.50;99.90;;;;;;5051317;28;20176;-66
2023/11/11 03:31:26;;;;;;;0.50;0.50;;;6.50;99.90;;;;;;5051650;28;20166;-65
2023/11/11 03:33:52;;;;;;;0.50;0.47;;;6.60;99.90;;;;;;5051591;28;20263;-65
2023/11/11 03:36:18;;;;;;;0.80;0.80;;;6.70;99.90;;;;;;5051863;28;20182;-65
2023/11/11 03:38:43;;;;;;;0.40;0.40;;;6.70;99.90;;;;;;5051298;28;20175;-66
2023/11/11 03:41:09;;;;;;;0.40;0.40;;;6.70;99.90;;;;;;5051486;28;20301;-65
2023/11/11 03:43:38;;;;;;;1.13;1.13;;;6.70;99.90;;;;;;5050281;28;20186;-65
2023/11/11 03:46:04;;;;;;;0.70;0.70;;;6.60;99.90;;;;;;5051178;28;20199;-65
2023/11/11 03:48:30;;;;;;;0.40;0.40;;;6.60;99.90;;;;;;5051162;28;20559;-65
2023/11/11 03:50:56;;;;;;;1.27;0.57;;;6.60;99.90;;;;;;5051474;28;20201;-65
2023/11/11 03:53:22;;;;;;;0.40;0.40;;;6.60;99.90;;;;;;5063348;23;20237;-60
2023/11/11 03:55:49;;;;;;;0.38;0.38;;;6.50;99.90;;;;;;5031752;28;20178;-60
2023/11/11 03:58:14;;;;;;;0.30;0.30;;;6.60;99.90;;;;;;5031336;28;20193;-60
2023/11/11 04:00:44;;;;;;;0.43;0.43;;;6.60;99.90;;;;;;5031563;28;20550;-60
2023/11/11 04:03:11;;;;;;;0.60;0.60;;;6.50;99.90;;;;;;5032060;28;20786;-60
2023/11/11 04:05:36;;;;;;;1.00;1.00;;;6.50;99.90;;;;;;5031570;28;20172;-60
2023/11/11 04:08:03;;;;;;;0.40;0.40;;;6.50;99.90;;;;;;5031510;28;20730;-60
2023/11/11 04:10:30;;;;;;;0.30;0.30;;;6.50;99.90;;;;;;5031238;28;20208;-60
2023/11/11 04:12:59;;;;;;;0.30;0.30;;;6.40;99.90;;;;;;5031531;28;20752;-60
2023/11/11 04:15:24;;;;;;;0.40;0.40;;;6.30;99.90;;;;;;5031455;28;20179;-60
2023/11/11 04:17:50;;;;;;;0.37;0.37;;;6.20;99.90;;;;;;5031442;28;20177;-60
2023/11/11 04:20:17;;;;;;;0.30;0.30;;;6.30;99.90;;;;;;5031351;28;20204;-60
2023/11/11 04:22:42;;;;;;;0.30;0.30;;;6.20;99.90;;;;;;5031380;28;20195;-60
2023/11/11 04:25:09;;;;;;;0.40;0.40;;;6.20;99.90;;;;;;5031435;28;20553;-60
2023/11/11 04:27:35;;;;;;;0.30;0.30;;;6.10;99.90;;;;;;5031396;28;20184;-60
2023/11/11 04:30:06;;;;;;;0.50;0.50;;;6.00;99.90;;;;;;5031098;28;20225;-60
2023/11/11 04:32:33;;;;;;;0.75;0.52;;;6.10;99.90;;;;;;5031357;28;20176;-60
2023/11/11 04:34:59;;;;;;;0.45;0.45;;;6.20;99.90;;;;;;5031329;28;20276;-60
2023/11/11 04:37:26;;;;;;;0.30;0.30;;;6.30;99.90;;;;;;5031204;28;20260;-60
2023/11/11 04:39:57;;;;;;;1.30;1.20;;;6.30;99.90;;;;;;5031107;28;20893;-60
2023/11/11 04:42:24;;;;;;;0.40;0.40;;;6.30;99.90;;;;;;5048200;28;20687;-60
2023/11/11 04:44:51;;;;;;;0.63;0.63;;;6.40;99.90;;;;;;5051008;28;20182;-60
2023/11/11 04:47:18;;;;;;;0.30;0.30;;;6.30;99.90;;;;;;5051231;28;20183;-60
2023/11/11 04:49:44;;;;;;;0.65;0.57;;;6.30;99.90;;;;;;5050870;28;20195;-60
2023/11/11 04:52:10;;;;;;;0.30;0.30;;;6.20;99.90;;;;;;5051207;28;20257;-60
2023/11/11 04:54:36;;;;;;;0.50;0.50;;;6.10;99.90;;;;;;5050926;28;20652;-61
2023/11/11 04:57:01;;;;;;;0.40;0.40;;;6.20;99.90;;;;;;5051902;28;20414;-60
2023/11/11 04:59:28;;;;;;;0.80;0.80;;;6.30;99.90;;;;;;5054545;28;20411;-60
2023/11/11 05:01:54;;;;;;;1.02;0.93;;;6.40;99.90;;;;;;5054612;28;20471;-60
2023/11/11 05:04:23;;;;;;;1.60;0.77;;;6.40;99.90;;;;;;5054634;28;20346;-60
2023/11/11 05:06:49;;;;;;;0.60;0.60;;;6.40;99.90;;;;;;5053493;28;20184;-60
2023/11/11 05:09:16;;;;;;;0.32;0.32;;;6.20;99.90;;;;;;5034181;28;20203;-60
2023/11/11 05:11:43;;;;;;;0.35;0.35;;;6.20;99.90;;;;;;5034391;28;20692;-60
2023/11/11 05:14:13;;;;;;;0.68;0.68;;;6.30;99.90;;;;;;5034321;28;20199;-60
2023/11/11 05:16:44;;;;;;;0.60;0.50;;;6.30;99.90;;;;;;5034717;28;20175;-60
2023/11/11 05:19:11;;;;;;;0.63;0.63;;;6.20;99.90;;;;;;5034313;28;20538;-60
2023/11/11 05:21:37;;;;;;;0.40;0.40;;;6.20;99.90;;;;;;5034301;28;20178;-60
2023/11/11 05:24:05;;;;;;;0.33;0.33;;;6.20;99.90;;;;;;5034342;28;20201;-60
2023/11/11 05:26:31;;;;;;;0.55;0.55;;;6.00;99.90;;;;;;5034027;28;20415;-60
2023/11/11 05:28:57;;;;;;;0.60;0.60;;;5.90;99.90;;;;;;5033873;28;20197;-60
2023/11/11 05:31:25;;;;;;;0.50;0.50;;;6.00;99.90;;;;;;5034508;28;20809;-60
2023/11/11 05:33:51;;;;;;;0.50;0.50;;;6.10;99.90;;;;;;5034114;28;20296;-60
2023/11/11 05:36:19;;;;;;;3.33;0.85;;;6.20;99.90;;;;;;5034020;28;20236;-60
2023/11/11 05:38:45;;;;;;;0.30;0.30;;;6.20;99.90;;;;;;5033639;28;20266;-60
2023/11/11 05:41:11;;;;;;;0.30;0.30;;;6.20;99.90;;;;;;5034056;28;20554;-60
2023/11/11 05:43:37;;;;;;;0.30;0.30;;;6.10;99.90;;;;;;5033960;28;20204;-60
2023/11/11 05:46:03;;;;;;;0.40;0.40;;;5.90;99.90;;;;;;5033772;28;20173;-60
2023/11/11 05:48:28;;;;;;;0.30;0.30;;;5.90;99.90;;;;;;5033592;28;20182;-60
2023/11/11 05:50:54;;;;;;;0.30;0.30;;;5.90;99.90;;;;;;5033783;28;20857;-60
2023/11/11 05:53:20;;;;;;;0.30;0.30;;;5.80;99.90;;;;;;5033547;28;20752;-60
2023/11/11 05:55:46;;;;;;;0.30;0.30;;;5.90;99.90;;;;;;5033832;28;20199;-60
2023/11/11 05:58:12;;;;;;;0.63;0.63;;;5.90;99.90;;;;;;5033575;28;20211;-60
2023/11/11 06:00:38;;;;;;;0.30;0.30;;;5.90;99.90;;;;;;5033506;28;20262;-60
2023/11/11 06:03:05;;;;;;;0.50;0.50;;;5.90;99.90;;;;;;5033605;28;20688;-60
2023/11/11 06:05:31;;;;;;;0.40;0.40;;;5.70;99.90;;;;;;5033828;28;20683;-60
2023/11/11 06:07:56;;;;;;;0.60;0.60;;;5.70;99.90;;;;;;5033264;28;20197;-61
2023/11/11 06:10:23;;;;;;;0.40;0.40;;;5.80;99.90;;;;;;5033388;28;20495;-60
2023/11/11 06:12:49;;;;;;;0.40;0.40;;;5.80;99.90;;;;;;5033380;28;20206;-60
2023/11/11 06:15:17;;;;;;;0.60;0.60;;;5.90;99.90;;;;;;5033336;28;20545;-60
2023/11/11 06:17:42;;;;;;;0.40;0.40;;;5.90;99.90;;;;;;5033184;28;20646;-60
2023/11/11 06:20:08;;;;;;;0.40;0.40;;;5.70;99.90;;;;;;5033066;28;20213;-60
2023/11/11 06:22:34;;;;;;;0.40;0.40;;;5.70;99.90;;;;;;5032922;28;20602;-60
2023/11/11 06:25:00;;;;;;;0.60;0.60;;;5.80;99.90;;;;;;5033115;28;20168;-60
2023/11/11 06:27:25;;;;;;;0.30;0.30;;;5.80;99.90;;;;;;5033119;28;20261;-60
2023/11/11 06:29:51;;;;;;;0.40;0.40;;;6.00;99.90;;;;;;5032774;28;20241;-60
2023/11/11 06:32:17;;;;;;;0.50;0.30;;;6.00;99.90;;;;;;5032954;28;20176;-60
2023/11/11 06:34:45;;;;;;;0.93;0.90;;;6.00;99.90;;;;;;5032972;28;20171;-60
2023/11/11 06:37:11;;;;;;;0.40;0.40;;;6.00;99.90;;;;;;5032665;28;20606;-60
2023/11/11 06:39:36;;;;;;;0.50;0.50;;;6.10;99.90;;;;;;5032711;28;20251;-60
2023/11/11 06:42:02;;;;;;;0.40;0.37;;;6.10;99.90;;;;;;5032981;28;20452;-60
2023/11/11 06:44:29;;;;;;;0.30;0.30;;;6.10;99.90;;;;;;5032732;28;20278;-60
2023/11/11 06:46:55;;;;;;;0.40;0.40;;;6.10;99.90;;;;;;5031949;28;20179;-60
2023/11/11 06:49:20;;;;;;;0.60;0.60;;;6.10;99.90;;;;;;5032398;28;20199;-60
2023/11/11 06:51:46;;;;;;;0.60;0.60;;;6.00;99.90;;;;;;5032476;28;20178;-60
2023/11/11 06:54:12;;;;;;;0.53;0.53;;;5.90;99.90;;;;;;5032470;28;20207;-60
2023/11/11 06:56:37;;;;;;;0.30;0.30;;;5.90;99.90;;;;;;5032435;28;20167;-60
2023/11/11 06:59:03;;;;;;;0.50;0.50;;;5.80;99.90;;;;;;5036400;28;20190;-60
2023/11/11 07:01:30;;;;;;;0.40;0.40;;;5.70;99.90;;;;;;5052400;28;20177;-60
2023/11/11 07:03:57;;;;;;;0.43;0.43;;;5.70;99.90;;;;;;5052250;28;20555;-60
2023/11/11 07:06:23;;;;;;;0.40;0.40;;;5.70;99.90;;;;;;5051953;28;20543;-60
2023/11/11 07:08:50;;;;;;;0.30;0.30;;;5.80;99.90;;;;;;5052026;28;20513;-60
2023/11/11 07:11:17;;;;;;;0.68;0.68;;;5.80;99.90;;;;;;5052155;28;20206;-60
2023/11/11 07:13:44;;;;;;;0.32;0.32;;;5.90;99.90;;;;;;5052030;28;20196;-60
2023/11/11 07:16:12;;;;;;;0.40;0.40;;;6.00;99.90;;;;;;5052112;28;20175;-60
2023/11/11 07:18:39;;;;;;;0.52;0.52;;;6.00;99.90;;;;;;5051723;28;20258;-60
2023/11/11 07:21:05;;;;;;;0.40;0.40;;;6.00;99.90;;;;;;5051460;28;20567;-60
2023/11/11 07:23:31;;;;;;;0.33;0.33;;;6.00;99.90;;;;;;5052161;28;20190;-60
2023/11/11 07:25:57;;;;;;;0.63;0.63;;;5.90;99.90;;;;;;5052073;28;20254;-60
2023/11/11 07:28:24;;;;;;;0.50;0.50;;;5.90;99.90;;;;;;5051231;28;20571;-60
2023/11/11 07:30:51;;;;;;;0.30;0.30;;;5.90;99.90;;;;;;5051747;28;20215;-60
2023/11/11 07:33:17;;;;;;;0.50;0.50;;;6.00;99.90;;;;;;5051626;28;20230;-59
2023/11/11 07:35:42;;;;;;;0.60;0.60;;;5.90;99.90;;;;;;5033063;28;20231;-60
2023/11/11 07:38:08;;;;;;;0.50;0.50;;;5.90;99.90;;;;;;5031717;28;20249;-60
2023/11/11 07:40:34;;;;;;;0.53;0.53;;;5.70;99.90;;;;;;5031695;28;20191;-60
2023/11/11 07:43:00;;;;;;;0.40;0.40;;;5.70;99.90;;;;;;5029147;28;20200;-60
2023/11/11 07:45:26;;;;;;;0.30;0.30;;;5.70;99.90;;;;;;5031810;28;20177;-60
2023/11/11 07:47:52;;;;;;;0.50;0.40;;;5.80;99.90;;;;;;5031661;28;20176;-59
2023/11/11 07:50:19;;;;;;;0.68;0.63;;;6.00;99.90;;;;;;5031393;28;20193;-60
2023/11/11 07:52:45;;;;;;;0.50;0.50;;;6.10;99.90;;;;;;5031520;28;20240;-60
2023/11/11 07:55:11;;;;;;;0.70;0.70;;;6.20;99.90;;;;;;5031697;28;20263;-60
2023/11/11 07:57:36;;;;;;;0.50;0.50;;;6.30;99.90;;;;;;5031536;28;20403;-60
2023/11/11 08:00:06;;;;;;;0.80;0.80;;;6.40;99.90;;;;;;5031495;28;20412;-60
2023/11/11 08:02:32;;;;;;;0.60;0.55;;;6.40;99.90;;;;;;5031494;28;20413;-60
2023/11/11 08:04:58;;;;;;;0.83;0.83;;;6.40;99.90;;;;;;5031674;28;20172;-61
2023/11/11 08:07:23;;;;;;;0.47;0.47;;;6.40;99.90;;;;;;5031665;28;20447;-60
2023/11/11 08:09:52;;;;;;;0.50;0.40;;;6.50;99.90;;;;;;5031437;28;20218;-60
2023/11/11 08:12:17;;;;;;;0.60;0.50;;;6.50;99.60;;;;;;5031499;28;20173;-60
2023/11/11 08:14:43;;;;;;;0.40;0.40;;;6.50;99.60;;;;;;5031264;28;20667;-59
2023/11/11 08:17:09;;;;;;;0.40;0.40;;;6.40;99.30;;;;;;5030906;28;20725;-60
2023/11/11 08:19:34;;;;;;;0.30;0.30;;;6.30;99.20;;;;;;5031181;28;20251;-60
2023/11/11 08:22:00;;;;;;;0.70;0.70;;;6.20;99.50;;;;;;5030820;28;20178;-60
2023/11/11 08:24:26;;;;;;;0.60;0.60;;;6.30;99.70;;;;;;5030920;28;20267;-59
2023/11/11 08:26:51;;;;;;;0.50;0.50;;;6.50;99.30;;;;;;5031183;28;20178;-60
2023/11/11 08:29:17;;;;;;;0.50;0.50;;;6.70;98.90;;;;;;5031171;28;20173;-61
2023/11/11 08:31:43;;;;;;;0.65;0.65;;;6.80;98.40;;;;;;5031788;28;20193;-61
2023/11/11 08:34:09;;;;;;;0.40;0.40;;;6.70;98.10;;;;;;5035124;28;20676;-61
2023/11/11 08:36:36;;;;;;;0.40;0.40;;;7.00;99.40;;;;;;5035162;28;20200;-61
2023/11/11 08:39:02;;;;;;;0.60;0.60;;;7.50;99.10;;;;;;5034837;28;20398;-60
2023/11/11 08:47:25;;;;;;;0.30;0.30;;;8.30;97.40;;;;;;4973987;28;20236;-68
2023/11/11 08:49:51;;;;;;;0.70;0.70;;;8.50;95.90;;;;;;4971974;28;20200;-69
2023/11/11 08:52:17;;;;;;;0.82;0.82;;;8.80;95.30;;;;;;4975346;28;20235;-68
2023/11/11 08:54:43;;;;;;;0.30;0.30;;;9.10;95.30;;;;;;4974755;28;20591;-67
2023/11/11 08:57:09;;;;;;;1.15;1.05;;;9.50;95.50;;;;;;4957263;28;20604;-69
2023/11/11 08:59:35;;;;;;;0.50;0.50;;;10.00;94.60;;;;;;4974539;28;20169;-68
2023/11/11 09:02:00;;;;;;;2.77;0.77;;;10.30;92.50;;;;;;4975262;28;20847;-68
2023/11/11 09:04:27;;;;;;;0.47;0.47;;;10.50;92.00;;;;;;4958283;28;20211;-68
2023/11/11 09:06:54;;;;;;;0.47;0.47;;;10.60;91.00;;;;;;4975580;28;20177;-69
2023/11/11 09:09:20;;;;;;;1.03;0.93;;;10.40;90.10;;;;;;4975373;28;20813;-70
2023/11/11 09:11:47;;;;;;;0.70;0.70;;;10.00;90.20;;;;;;4975268;28;20836;-67
2023/11/11 09:14:13;;;;;;;0.70;0.70;;;9.60;92.00;;;;;;4958022;28;20272;-67
2023/11/11 09:16:38;;;;;;;0.40;0.40;;;9.20;92.90;;;;;;4975496;28;20511;-68
2023/11/11 09:19:05;;;;;;;0.53;0.53;;;8.60;93.50;;;;;;4958206;28;20181;-67
2023/11/11 09:21:33;;;;;;;0.70;0.70;;;8.20;94.30;;;;;;4975148;28;20177;-69
2023/11/11 09:23:59;;;;;;;0.40;0.40;;;8.10;94.90;;;;;;4974912;28;20658;-69
2023/11/11 09:26:26;;;;;;;0.90;0.60;;;8.20;94.70;;;;;;4975163;28;20255;-63
2023/11/11 09:28:52;;;;;;;0.65;0.65;;;8.20;94.80;;;;;;4975120;28;20168;-69
2023/11/11 09:31:17;;;;;;;0.83;0.57;;;8.10;94.30;;;;;;4974968;28;20208;-69
2023/11/11 09:33:45;;;;;;;1.13;0.97;;;8.20;95.40;;;;;;4974741;28;20192;-68
2023/11/11 09:36:12;;;;;;;0.40;0.40;;;8.60;94.40;;;;;;4975014;28;20248;-69
2023/11/11 09:38:40;;;;;;;2.88;0.70;;;9.10;94.20;;;;;;4957610;28;20177;-69
2023/11/11 09:41:06;;;;;;;0.60;0.60;;;10.00;92.20;;;;;;4974962;28;20717;-69
2023/11/11 09:43:32;;;;;;;0.40;0.40;;;11.00;92.40;;;;;;4974434;28;20434;-69
2023/11/11 09:46:01;;;;;;;0.70;0.57;;;12.00;89.70;;;;;;4957679;28;20174;-69
2023/11/11 09:48:28;;;;;;;0.70;0.70;;;12.70;87.20;;;;;;4974782;28;20428;-69
2023/11/11 09:50:53;;;;;;;2.30;0.80;;;12.70;82.90;;;;;;4957607;28;20468;-69
2023/11/11 09:53:19;;;;;;;0.40;0.40;;;12.60;82.10;;;;;;4973558;28;20436;-73
2023/11/11 09:55:46;;;;;;;0.60;0.60;;;12.20;83.70;;;;;;4975070;28;20552;-61
2023/11/11 09:58:14;;;;;;;0.77;0.50;;;11.50;84.80;;;;;;4974874;28;20721;-62
2023/11/11 10:00:41;;;;;;;0.60;0.60;;;10.50;87.80;;;;;;4970537;28;20443;-64
2023/11/11 10:03:07;;;;;;;0.68;0.68;;;10.00;90.00;;;;;;4957520;28;20437;-67
2023/11/11 10:05:33;;;;;;;0.47;0.47;;;9.60;91.60;;;;;;4965915;28;20662;-70
2023/11/11 10:08:01;;;;;;;1.63;1.02;;;9.40;92.00;;;;;;4955615;28;20948;-67
2023/11/11 10:10:27;;;;;;;2.13;1.95;;;9.20;92.30;;;;;;4954667;29;20213;-70
2023/11/11 10:12:53;;;;;;;0.93;0.65;;;9.00;92.70;;;;;;4936747;29;20195;-68
2023/11/11 10:15:21;;;;;;;0.63;0.63;;;8.80;92.40;;;;;;4955033;29;20230;-68
2023/11/11 10:17:47;;;;;;;0.32;0.32;;;8.60;92.50;;;;;;4954913;29;20654;-68
2023/11/11 10:20:13;;;;;;;1.40;1.30;;;8.20;92.80;;;;;;4954743;29;20193;-68
2023/11/11 10:22:46;;;;;;;3.58;3.25;;;8.00;93.60;;;;;;4954434;28;20197;-67
2023/11/11 10:25:17;;;;;;;1.55;1.55;;;7.80;94.50;;;;;;4954864;29;20188;-66
2023/11/11 10:27:54;;;;;;;0.50;0.50;;;7.80;94.40;;;;;;4954675;29;20228;-64
2023/11/11 10:30:25;;;;;;;0.95;0.90;;;8.00;99.50;;;;;;4954944;29;20768;-64
2023/11/11 10:32:52;;;;;;;4.72;1.45;;;8.70;99.90;;;;;;4954567;28;20213;-65
2023/11/11 10:35:20;;;;;;;0.75;0.75;;;9.60;99.90;;;;;;4955187;29;20549;-64
2023/11/11 10:37:47;;;;;;;0.60;0.60;;;10.40;99.90;;;;;;4954869;29;20166;-67
2023/11/11 10:40:17;;;;;;;9.57;1.50;;;11.10;97.60;;;;;;4937470;29;20678;-67
2023/11/11 10:42:48;;;;;;;0.57;0.57;;;11.00;91.40;;;;;;4953907;28;21036;-66
2023/11/11 10:45:15;;;;;;;0.63;0.63;;;10.70;91.10;;;;;;4954390;29;20185;-66
2023/11/11 10:47:42;;;;;;;0.30;0.30;;;10.50;92.00;;;;;;4954169;29;20185;-67
2023/11/11 10:50:09;;;;;;;1.08;0.60;;;10.30;91.80;;;;;;4954548;29;20282;-66
2023/11/11 10:52:36;;;;;;;1.45;1.35;;;10.00;91.50;;;;;;4953956;28;20276;-67
2023/11/11 10:55:05;;;;;;;0.40;0.40;;;9.60;92.40;;;;;;4953578;28;20177;-67
2023/11/11 10:57:32;;;;;;;0.40;0.40;;;9.30;92.50;;;;;;4936327;29;20545;-66
2023/11/11 10:59:59;;;;;;;0.40;0.40;;;8.90;93.00;;;;;;4954214;29;20232;-66
2023/11/11 11:02:27;;;;;;;0.55;0.55;;;8.60;93.40;;;;;;4953846;28;20193;-67
2023/11/11 11:05:03;;;;;;;0.40;0.40;;;8.30;94.70;;;;;;4954254;29;20597;-67
2023/11/11 11:07:52;;;;;;;0.50;0.40;;;8.00;94.40;;;;;;4954229;29;20577;-67
2023/11/11 11:10:51;;;;;;;0.30;0.30;;;7.70;94.60;;;;;;4953882;29;20209;-66
2023/11/11 11:13:18;;;;;;;0.40;0.40;;;7.50;95.00;;;;;;4939217;28;20262;-63
2023/11/11 11:15:44;;;;;;;1.50;1.50;;;7.40;95.10;;;;;;4963335;28;20185;-67
2023/11/11 11:18:20;;;;;;;1.35;1.25;;;7.30;95.30;;;;;;4953792;29;20658;-65
2023/11/11 11:20:45;;;;;;;1.15;1.15;;;7.10;95.90;;;;;;4953810;29;20191;-63
2023/11/11 11:23:11;;;;;;;1.77;1.67;;;7.00;96.20;;;;;;4970948;28;20204;-65
2023/11/11 11:25:40;;;;;;;0.60;0.60;;;7.00;96.50;;;;;;4973078;28;20549;-65
2023/11/11 11:28:12;;;;;;;0.50;0.50;;;7.00;96.90;;;;;;4972987;28;20179;-65
2023/11/11 11:30:55;;;;;;;0.40;0.40;;;7.00;96.80;;;;;;4963563;28;20266;-65
2023/11/11 11:33:32;;;;;;;0.40;0.40;;;7.00;96.80;;;;;;4953624;28;20207;-66
2023/11/11 11:36:01;;;;;;;0.60;0.60;;;6.90;96.90;;;;;;4954070;29;20719;-64
2023/11/11 11:38:35;;;;;;;0.30;0.30;;;6.70;97.40;;;;;;4953692;29;20185;-63
2023/11/11 11:41:12;;;;;;;0.82;0.82;;;6.70;98.20;;;;;;4972734;28;20784;-63
2023/11/11 11:43:42;;;;;;;0.70;0.70;;;7.00;98.80;;;;;;4972105;28;20202;-66
2023/11/11 11:46:08;;;;;;;0.40;0.40;;;7.10;97.40;;;;;;4955073;28;20191;-63
2023/11/11 11:48:43;;;;;;;0.50;0.50;;;7.20;97.50;;;;;;4954846;28;20286;-64
2023/11/11 11:51:13;;;;;;;0.40;0.40;;;7.10;97.30;;;;;;4972673;28;20204;-65
2023/11/11 11:53:43;;;;;;;2.47;2.28;;;7.20;97.90;;;;;;4971801;28;20208;-64
2023/11/11 11:56:13;;;;;;;3.22;1.23;;;7.30;97.90;;;;;;4954771;28;20212;-67
2023/11/11 11:58:45;;;;;;;0.88;0.88;;;7.40;98.00;;;;;;4972156;28;20172;-67
2023/11/11 12:01:11;;;;;;;0.77;0.77;;;7.40;97.90;;;;;;4934457;29;20689;-66
2023/11/11 12:03:37;;;;;;;1.30;1.20;;;7.60;97.90;;;;;;4966540;28;20208;-65
2023/11/11 12:06:03;;;;;;;0.40;0.40;;;7.70;97.50;;;;;;4973303;28;20181;-65
2023/11/11 12:08:29;;;;;;;0.70;0.70;;;7.70;96.70;;;;;;4970442;28;20823;-68
2023/11/11 12:10:56;;;;;;;1.02;0.60;;;7.70;97.10;;;;;;4973324;28;20220;-66
2023/11/11 12:13:22;;;;;;;0.65;0.65;;;7.70;97.40;;;;;;4973683;28;20189;-73
2023/11/11 12:15:49;;;;;;;0.37;0.37;;;7.70;97.20;;;;;;4976250;28;20180;-73
2023/11/11 12:18:17;;;;;;;0.40;0.40;;;7.80;97.40;;;;;;4976458;28;20184;-72
2023/11/11 12:20:45;;;;;;;12.15;5.97;;;7.60;97.10;;;;;;4970824;28;20227;-64
2023/11/11 12:23:12;;;;;;;0.50;0.50;;;7.40;97.30;;;;;;4957935;28;20196;-71
2023/11/11 12:25:43;;;;;;;1.35;0.70;;;7.40;97.30;;;;;;4966707;28;20176;-63
2023/11/11 12:28:09;;;;;;;0.50;0.50;;;7.50;97.90;;;;;;4957068;29;20237;-65
2023/11/11 12:30:35;;;;;;;0.80;0.80;;;7.70;98.30;;;;;;4972016;28;20216;-69
2023/11/11 12:33:06;;;;;;;0.77;0.67;;;7.80;97.50;;;;;;4975713;28;20196;-71
2023/11/11 12:35:32;;;;;;;1.02;0.93;;;7.60;97.00;;;;;;4976139;28;20164;-71
2023/11/11 12:37:58;;;;;;;1.95;0.65;;;7.50;97.40;;;;;;4976151;28;20176;-71
2023/11/11 12:40:33;;;;;;;1.17;0.73;;;7.60;98.00;;;;;;4976084;28;20184;-71
2023/11/11 12:42:59;;;;;;;0.95;0.95;;;7.70;97.40;;;;;;4975685;28;20215;-71
2023/11/11 12:45:25;;;;;;;0.90;0.90;;;7.80;97.20;;;;;;4975977;28;20179;-71
2023/11/11 12:47:54;;;;;;;0.40;0.40;;;7.80;97.10;;;;;;4975832;28;20439;-71
2023/11/11 12:50:32;;;;;;;2.78;1.38;;;7.80;97.20;;;;;;4958546;28;20231;-71
2023/11/11 12:53:11;;;;;;;0.60;0.60;;;7.70;97.30;;;;;;4975266;28;20262;-71
2023/11/11 12:55:45;;;;;;;4.55;3.50;;;7.70;97.70;;;;;;4975801;28;20207;-71
2023/11/11 12:58:26;;;;;;;1.95;1.50;;;7.50;98.10;;;;;;4975689;28;20179;-71
2023/11/11 13:00:57;;;;;;;0.55;0.40;;;7.50;98.70;;;;;;4975797;28;20195;-71